Woodstock, United Kingdom
Current Conditions -  °F | °C
As of 9:20 PM on Monday 24 Nov 2014 (Local Time) from EGTK Reporting Station
Haze Haze  
Wind Chill: 30°   Ceiling: Unl
Heat Index: 30°   Visibility: 1.8mi
Dew Point: 30°   Wind: 2mph
Humidity: 100%   Direction: 330°NNW
Pressure: 30.33"   Gusts: NA
Location:  51.85°N, 1.35°W
Report Text: EGTK 242120Z 33002KT 3000 BR NSC M01/M01 Q1027
Loading
Personal Weather Stations






























Interactive Weather Map New forecast layout! Learn more

10-Day Weather Forecast

Advertisements
Track Severe Weather on mobile